sensor_id;sensor_type;location;lat;lon;timestamp;P1;durP1;ratioP1;P2;durP2;ratioP2
54555;SDS011;57291;37.520;15.106;2023-06-22T00:00:22;19.73;;;9.25;;
54555;SDS011;57291;37.520;15.106;2023-06-22T00:02:49;16.23;;;9.00;;
54555;SDS011;57291;37.520;15.106;2023-06-22T00:05:16;18.38;;;9.43;;
54555;SDS011;57291;37.520;15.106;2023-06-22T00:07:43;15.85;;;8.98;;
54555;SDS011;57291;37.520;15.106;2023-06-22T00:10:10;14.82;;;8.80;;
54555;SDS011;57291;37.520;15.106;2023-06-22T00:12:38;18.45;;;8.52;;
54555;SDS011;57291;37.520;15.106;2023-06-22T00:15:05;16.42;;;8.75;;
54555;SDS011;57291;37.520;15.106;2023-06-22T00:17:32;12.48;;;8.57;;
54555;SDS011;57291;37.520;15.106;2023-06-22T00:19:59;15.05;;;7.75;;
54555;SDS011;57291;37.520;15.106;2023-06-22T00:22:27;11.60;;;8.27;;
54555;SDS011;57291;37.520;15.106;2023-06-22T00:24:56;12.30;;;8.07;;
54555;SDS011;57291;37.520;15.106;2023-06-22T00:27:23;12.23;;;7.35;;
54555;SDS011;57291;37.520;15.106;2023-06-22T00:29:51;13.00;;;8.18;;
54555;SDS011;57291;37.520;15.106;2023-06-22T00:32:18;13.23;;;7.63;;
54555;SDS011;57291;37.520;15.106;2023-06-22T00:34:46;14.07;;;8.23;;
54555;SDS011;57291;37.520;15.106;2023-06-22T00:37:14;10.43;;;7.72;;
54555;SDS011;57291;37.520;15.106;2023-06-22T00:39:42;13.20;;;7.93;;
54555;SDS011;57291;37.520;15.106;2023-06-22T00:42:10;17.15;;;7.90;;
54555;SDS011;57291;37.520;15.106;2023-06-22T00:44:37;17.98;;;8.70;;
54555;SDS011;57291;37.520;15.106;2023-06-22T00:47:05;16.13;;;8.50;;
54555;SDS011;57291;37.520;15.106;2023-06-22T00:49:33;19.75;;;8.50;;
54555;SDS011;57291;37.520;15.106;2023-06-22T00:52:00;16.58;;;8.50;;
54555;SDS011;57291;37.520;15.106;2023-06-22T00:54:28;20.17;;;9.18;;
54555;SDS011;57291;37.520;15.106;2023-06-22T00:56:56;19.67;;;9.88;;
54555;SDS011;57291;37.520;15.106;2023-06-22T00:59:24;17.80;;;9.23;;
54555;SDS011;57291;37.520;15.106;2023-06-22T01:01:53;16.92;;;8.82;;
54555;SDS011;57291;37.520;15.106;2023-06-22T01:04:24;13.77;;;8.45;;
54555;SDS011;57291;37.520;15.106;2023-06-22T01:09:35;21.02;;;8.65;;
54555;SDS011;57291;37.520;15.106;2023-06-22T01:12:09;16.50;;;8.73;;
54555;SDS011;57291;37.520;15.106;2023-06-22T01:14:58;12.10;;;7.65;;
54555;SDS011;57291;37.520;15.106;2023-06-22T01:17:39;19.45;;;8.05;;
54555;SDS011;57291;37.520;15.106;2023-06-22T01:20:10;15.32;;;7.63;;
54555;SDS011;57291;37.520;15.106;2023-06-22T01:25:46;16.63;;;8.48;;
54555;SDS011;57291;37.520;15.106;2023-06-22T01:31:12;13.45;;;8.45;;
54555;SDS011;57291;37.520;15.106;2023-06-22T01:33:43;14.07;;;7.80;;
54555;SDS011;57291;37.520;15.106;2023-06-22T01:36:13;17.00;;;7.80;;
54555;SDS011;57291;37.520;15.106;2023-06-22T01:38:41;13.20;;;8.90;;
54555;SDS011;57291;37.520;15.106;2023-06-22T01:41:10;12.23;;;7.63;;
54555;SDS011;57291;37.520;15.106;2023-06-22T01:43:38;9.50;;;6.70;;
54555;SDS011;57291;37.520;15.106;2023-06-22T01:46:05;14.95;;;8.05;;
54555;SDS011;57291;37.520;15.106;2023-06-22T01:48:33;12.25;;;7.35;;
54555;SDS011;57291;37.520;15.106;2023-06-22T01:51:01;10.95;;;6.20;;
54555;SDS011;57291;37.520;15.106;2023-06-22T01:53:29;11.18;;;6.13;;
54555;SDS011;57291;37.520;15.106;2023-06-22T01:55:56;10.80;;;7.05;;
54555;SDS011;57291;37.520;15.106;2023-06-22T01:58:28;11.77;;;6.18;;
54555;SDS011;57291;37.520;15.106;2023-06-22T02:01:08;13.18;;;6.97;;
54555;SDS011;57291;37.520;15.106;2023-06-22T02:03:41;9.93;;;5.68;;
54555;SDS011;57291;37.520;15.106;2023-06-22T02:06:16;8.65;;;5.65;;
54555;SDS011;57291;37.520;15.106;2023-06-22T02:08:49;10.25;;;6.00;;
54555;SDS011;57291;37.520;15.106;2023-06-22T02:11:20;7.05;;;5.40;;
54555;SDS011;57291;37.520;15.106;2023-06-22T02:13:49;10.02;;;6.32;;
54555;SDS011;57291;37.520;15.106;2023-06-22T02:16:17;9.63;;;5.75;;
54555;SDS011;57291;37.520;15.106;2023-06-22T02:18:49;12.27;;;6.22;;
54555;SDS011;57291;37.520;15.106;2023-06-22T02:21:20;8.85;;;6.25;;
54555;SDS011;57291;37.520;15.106;2023-06-22T02:23:48;11.10;;;5.50;;
54555;SDS011;57291;37.520;15.106;2023-06-22T02:26:16;11.23;;;5.75;;
54555;SDS011;57291;37.520;15.106;2023-06-22T02:28:44;13.15;;;7.10;;
54555;SDS011;57291;37.520;15.106;2023-06-22T02:31:16;14.02;;;6.10;;
54555;SDS011;57291;37.520;15.106;2023-06-22T02:33:44;11.70;;;6.30;;
54555;SDS011;57291;37.520;15.106;2023-06-22T02:36:12;10.57;;;6.07;;
54555;SDS011;57291;37.520;15.106;2023-06-22T02:38:43;8.90;;;5.82;;
54555;SDS011;57291;37.520;15.106;2023-06-22T02:41:15;11.32;;;6.00;;
54555;SDS011;57291;37.520;15.106;2023-06-22T02:43:45;12.35;;;5.65;;
54555;SDS011;57291;37.520;15.106;2023-06-22T02:46:13;11.93;;;6.25;;
54555;SDS011;57291;37.520;15.106;2023-06-22T02:48:41;11.48;;;5.78;;
54555;SDS011;57291;37.520;15.106;2023-06-22T02:51:11;10.13;;;5.85;;
54555;SDS011;57291;37.520;15.106;2023-06-22T02:53:38;8.38;;;5.45;;
54555;SDS011;57291;37.520;15.106;2023-06-22T02:56:05;7.95;;;5.25;;
54555;SDS011;57291;37.520;15.106;2023-06-22T02:58:36;11.35;;;6.10;;
54555;SDS011;57291;37.520;15.106;2023-06-22T03:03:42;7.85;;;5.10;;
54555;SDS011;57291;37.520;15.106;2023-06-22T03:06:09;9.90;;;5.35;;
54555;SDS011;57291;37.520;15.106;2023-06-22T03:08:41;12.07;;;5.40;;
54555;SDS011;57291;37.520;15.106;2023-06-22T03:11:10;9.15;;;5.28;;
54555;SDS011;57291;37.520;15.106;2023-06-22T03:13:37;10.65;;;5.70;;
54555;SDS011;57291;37.520;15.106;2023-06-22T03:16:06;14.85;;;8.55;;
54555;SDS011;57291;37.520;15.106;2023-06-22T03:18:33;15.60;;;8.07;;
54555;SDS011;57291;37.520;15.106;2023-06-22T03:21:01;21.98;;;8.88;;
54555;SDS011;57291;37.520;15.106;2023-06-22T03:23:30;12.48;;;7.38;;
54555;SDS011;57291;37.520;15.106;2023-06-22T03:25:58;15.40;;;7.15;;
54555;SDS011;57291;37.520;15.106;2023-06-22T03:28:25;14.25;;;6.95;;
54555;SDS011;57291;37.520;15.106;2023-06-22T03:30:52;16.20;;;7.68;;
54555;SDS011;57291;37.520;15.106;2023-06-22T03:33:19;11.35;;;7.15;;
54555;SDS011;57291;37.520;15.106;2023-06-22T03:35:46;9.75;;;6.25;;
54555;SDS011;57291;37.520;15.106;2023-06-22T03:38:13;10.45;;;6.00;;
54555;SDS011;57291;37.520;15.106;2023-06-22T03:40:40;11.25;;;6.05;;
54555;SDS011;57291;37.520;15.106;2023-06-22T03:43:08;9.50;;;5.95;;
54555;SDS011;57291;37.520;15.106;2023-06-22T03:45:35;8.93;;;6.15;;
54555;SDS011;57291;37.520;15.106;2023-06-22T03:48:03;30.27;;;7.93;;
54555;SDS011;57291;37.520;15.106;2023-06-22T03:50:31;13.75;;;7.28;;
54555;SDS011;57291;37.520;15.106;2023-06-22T03:52:58;11.43;;;7.32;;
54555;SDS011;57291;37.520;15.106;2023-06-22T03:55:25;18.50;;;7.45;;
54555;SDS011;57291;37.520;15.106;2023-06-22T03:57:52;12.55;;;6.63;;
54555;SDS011;57291;37.520;15.106;2023-06-22T04:00:21;11.25;;;6.43;;
54555;SDS011;57291;37.520;15.106;2023-06-22T04:02:48;11.15;;;6.78;;
54555;SDS011;57291;37.520;15.106;2023-06-22T04:05:15;14.38;;;6.50;;
54555;SDS011;57291;37.520;15.106;2023-06-22T04:07:45;12.23;;;7.00;;
54555;SDS011;57291;37.520;15.106;2023-06-22T04:10:12;13.80;;;7.78;;
54555;SDS011;57291;37.520;15.106;2023-06-22T04:12:43;15.90;;;7.50;;
54555;SDS011;57291;37.520;15.106;2023-06-22T04:15:10;13.20;;;7.63;;
54555;SDS011;57291;37.520;15.106;2023-06-22T04:17:38;14.00;;;7.30;;
54555;SDS011;57291;37.520;15.106;2023-06-22T04:20:06;13.18;;;7.28;;
54555;SDS011;57291;37.520;15.106;2023-06-22T04:22:34;13.80;;;7.95;;
54555;SDS011;57291;37.520;15.106;2023-06-22T04:25:01;16.83;;;7.55;;
54555;SDS011;57291;37.520;15.106;2023-06-22T04:27:28;14.95;;;7.88;;
54555;SDS011;57291;37.520;15.106;2023-06-22T04:29:55;12.90;;;7.07;;
54555;SDS011;57291;37.520;15.106;2023-06-22T04:32:22;18.73;;;8.30;;
54555;SDS011;57291;37.520;15.106;2023-06-22T04:34:49;15.20;;;8.07;;
54555;SDS011;57291;37.520;15.106;2023-06-22T04:37:19;17.40;;;8.38;;
54555;SDS011;57291;37.520;15.106;2023-06-22T04:39:46;14.52;;;7.55;;
54555;SDS011;57291;37.520;15.106;2023-06-22T04:42:13;15.80;;;7.55;;
54555;SDS011;57291;37.520;15.106;2023-06-22T04:44:40;15.07;;;7.45;;
54555;SDS011;57291;37.520;15.106;2023-06-22T04:47:09;13.68;;;7.13;;
54555;SDS011;57291;37.520;15.106;2023-06-22T04:49:36;13.98;;;6.82;;
54555;SDS011;57291;37.520;15.106;2023-06-22T04:52:07;11.25;;;6.88;;
54555;SDS011;57291;37.520;15.106;2023-06-22T04:54:36;14.30;;;6.70;;
54555;SDS011;57291;37.520;15.106;2023-06-22T04:57:05;14.38;;;7.53;;
54555;SDS011;57291;37.520;15.106;2023-06-22T04:59:37;37.55;;;10.85;;
54555;SDS011;57291;37.520;15.106;2023-06-22T05:02:08;36.97;;;11.45;;
54555;SDS011;57291;37.520;15.106;2023-06-22T05:04:36;21.92;;;10.00;;
54555;SDS011;57291;37.520;15.106;2023-06-22T05:07:06;23.42;;;10.27;;
54555;SDS011;57291;37.520;15.106;2023-06-22T05:09:34;18.13;;;10.15;;
54555;SDS011;57291;37.520;15.106;2023-06-22T05:12:01;22.90;;;10.70;;
54555;SDS011;57291;37.520;15.106;2023-06-22T05:14:29;21.00;;;10.73;;
54555;SDS011;57291;37.520;15.106;2023-06-22T05:16:57;19.08;;;11.23;;
54555;SDS011;57291;37.520;15.106;2023-06-22T05:19:30;16.58;;;11.02;;
54555;SDS011;57291;37.520;15.106;2023-06-22T05:22:01;19.33;;;10.85;;
54555;SDS011;57291;37.520;15.106;2023-06-22T05:24:28;17.95;;;11.63;;
54555;SDS011;57291;37.520;15.106;2023-06-22T05:26:55;22.15;;;11.27;;
54555;SDS011;57291;37.520;15.106;2023-06-22T05:29:23;20.40;;;11.15;;
54555;SDS011;57291;37.520;15.106;2023-06-22T05:31:50;20.40;;;11.43;;
54555;SDS011;57291;37.520;15.106;2023-06-22T05:34:18;25.70;;;11.00;;
54555;SDS011;57291;37.520;15.106;2023-06-22T05:36:45;21.67;;;10.70;;
54555;SDS011;57291;37.520;15.106;2023-06-22T05:39:13;22.55;;;10.60;;
54555;SDS011;57291;37.520;15.106;2023-06-22T05:41:42;23.70;;;10.20;;
54555;SDS011;57291;37.520;15.106;2023-06-22T05:44:12;22.80;;;10.55;;
54555;SDS011;57291;37.520;15.106;2023-06-22T05:46:40;24.85;;;10.95;;
54555;SDS011;57291;37.520;15.106;2023-06-22T05:49:11;24.85;;;11.02;;
54555;SDS011;57291;37.520;15.106;2023-06-22T05:51:39;26.42;;;11.02;;
54555;SDS011;57291;37.520;15.106;2023-06-22T05:54:07;25.65;;;9.75;;
54555;SDS011;57291;37.520;15.106;2023-06-22T05:56:40;17.55;;;9.48;;
54555;SDS011;57291;37.520;15.106;2023-06-22T05:59:07;23.20;;;10.05;;
54555;SDS011;57291;37.520;15.106;2023-06-22T06:01:34;20.35;;;8.90;;
54555;SDS011;57291;37.520;15.106;2023-06-22T06:04:03;17.88;;;8.80;;
54555;SDS011;57291;37.520;15.106;2023-06-22T06:06:31;21.73;;;9.48;;
54555;SDS011;57291;37.520;15.106;2023-06-22T06:08:58;21.00;;;8.77;;
54555;SDS011;57291;37.520;15.106;2023-06-22T06:11:26;22.73;;;9.30;;
54555;SDS011;57291;37.520;15.106;2023-06-22T06:13:53;16.98;;;8.25;;
54555;SDS011;57291;37.520;15.106;2023-06-22T06:16:21;19.38;;;8.48;;
54555;SDS011;57291;37.520;15.106;2023-06-22T06:18:48;22.80;;;8.85;;
54555;SDS011;57291;37.520;15.106;2023-06-22T06:21:17;18.88;;;7.85;;
54555;SDS011;57291;37.520;15.106;2023-06-22T06:23:44;16.23;;;7.68;;
54555;SDS011;57291;37.520;15.106;2023-06-22T06:26:11;16.83;;;8.07;;
54555;SDS011;57291;37.520;15.106;2023-06-22T06:28:39;12.45;;;6.28;;
54555;SDS011;57291;37.520;15.106;2023-06-22T06:31:07;15.75;;;7.78;;
54555;SDS011;57291;37.520;15.106;2023-06-22T06:33:35;17.17;;;8.02;;
54555;SDS011;57291;37.520;15.106;2023-06-22T06:36:03;16.92;;;8.05;;
54555;SDS011;57291;37.520;15.106;2023-06-22T06:38:30;17.75;;;7.57;;
54555;SDS011;57291;37.520;15.106;2023-06-22T06:40:58;13.90;;;7.22;;
54555;SDS011;57291;37.520;15.106;2023-06-22T06:43:26;15.77;;;6.70;;
54555;SDS011;57291;37.520;15.106;2023-06-22T06:45:53;15.30;;;7.00;;
54555;SDS011;57291;37.520;15.106;2023-06-22T06:48:20;13.68;;;6.15;;
54555;SDS011;57291;37.520;15.106;2023-06-22T06:50:47;12.95;;;7.35;;
54555;SDS011;57291;37.520;15.106;2023-06-22T06:53:14;16.30;;;7.65;;
54555;SDS011;57291;37.520;15.106;2023-06-22T06:55:42;21.17;;;7.80;;
54555;SDS011;57291;37.520;15.106;2023-06-22T06:58:12;15.88;;;7.68;;
54555;SDS011;57291;37.520;15.106;2023-06-22T07:00:41;21.38;;;8.20;;
54555;SDS011;57291;37.520;15.106;2023-06-22T07:03:10;16.92;;;8.73;;
54555;SDS011;57291;37.520;15.106;2023-06-22T07:05:38;20.50;;;9.07;;
54555;SDS011;57291;37.520;15.106;2023-06-22T07:08:05;19.27;;;9.40;;
54555;SDS011;57291;37.520;15.106;2023-06-22T07:10:32;16.80;;;9.23;;
54555;SDS011;57291;37.520;15.106;2023-06-22T07:12:59;18.80;;;10.43;;
54555;SDS011;57291;37.520;15.106;2023-06-22T07:15:27;17.50;;;9.13;;
54555;SDS011;57291;37.520;15.106;2023-06-22T07:17:55;15.23;;;9.25;;
54555;SDS011;57291;37.520;15.106;2023-06-22T07:20:22;18.58;;;9.65;;
54555;SDS011;57291;37.520;15.106;2023-06-22T07:22:49;15.50;;;9.27;;
54555;SDS011;57291;37.520;15.106;2023-06-22T07:25:17;18.15;;;9.38;;
54555;SDS011;57291;37.520;15.106;2023-06-22T07:27:58;18.27;;;10.07;;
54555;SDS011;57291;37.520;15.106;2023-06-22T07:30:30;17.50;;;10.80;;
54555;SDS011;57291;37.520;15.106;2023-06-22T07:32:59;17.13;;;11.32;;
54555;SDS011;57291;37.520;15.106;2023-06-22T07:35:31;15.20;;;10.77;;
54555;SDS011;57291;37.520;15.106;2023-06-22T07:37:59;15.60;;;10.38;;
54555;SDS011;57291;37.520;15.106;2023-06-22T07:40:31;18.15;;;9.63;;
54555;SDS011;57291;37.520;15.106;2023-06-22T07:42:58;16.63;;;9.48;;
54555;SDS011;57291;37.520;15.106;2023-06-22T07:45:25;18.17;;;9.82;;
54555;SDS011;57291;37.520;15.106;2023-06-22T07:47:53;15.43;;;8.77;;
54555;SDS011;57291;37.520;15.106;2023-06-22T07:50:20;14.43;;;8.65;;
54555;SDS011;57291;37.520;15.106;2023-06-22T07:52:47;15.80;;;9.00;;
54555;SDS011;57291;37.520;15.106;2023-06-22T07:55:14;19.33;;;9.63;;
54555;SDS011;57291;37.520;15.106;2023-06-22T07:57:42;19.15;;;9.90;;
54555;SDS011;57291;37.520;15.106;2023-06-22T08:00:09;15.23;;;9.05;;
54555;SDS011;57291;37.520;15.106;2023-06-22T08:02:42;16.58;;;8.70;;
54555;SDS011;57291;37.520;15.106;2023-06-22T08:05:11;14.00;;;7.78;;
54555;SDS011;57291;37.520;15.106;2023-06-22T08:07:48;17.27;;;8.35;;
54555;SDS011;57291;37.520;15.106;2023-06-22T08:10:15;14.65;;;7.97;;
54555;SDS011;57291;37.520;15.106;2023-06-22T08:12:43;16.52;;;8.43;;
54555;SDS011;57291;37.520;15.106;2023-06-22T08:15:10;11.98;;;7.63;;
54555;SDS011;57291;37.520;15.106;2023-06-22T08:17:37;15.02;;;7.10;;
54555;SDS011;57291;37.520;15.106;2023-06-22T08:20:06;14.68;;;6.50;;
54555;SDS011;57291;37.520;15.106;2023-06-22T08:22:39;14.13;;;6.60;;
54555;SDS011;57291;37.520;15.106;2023-06-22T08:25:07;15.05;;;6.32;;
54555;SDS011;57291;37.520;15.106;2023-06-22T08:27:35;9.18;;;6.13;;
54555;SDS011;57291;37.520;15.106;2023-06-22T08:30:03;12.52;;;6.53;;
54555;SDS011;57291;37.520;15.106;2023-06-22T08:32:30;15.32;;;5.97;;
54555;SDS011;57291;37.520;15.106;2023-06-22T08:35:00;12.70;;;6.07;;
54555;SDS011;57291;37.520;15.106;2023-06-22T08:37:27;14.50;;;6.22;;
54555;SDS011;57291;37.520;15.106;2023-06-22T08:39:58;12.07;;;6.55;;
54555;SDS011;57291;37.520;15.106;2023-06-22T08:42:27;15.60;;;7.10;;
54555;SDS011;57291;37.520;15.106;2023-06-22T08:44:55;15.68;;;6.35;;
54555;SDS011;57291;37.520;15.106;2023-06-22T08:47:22;14.65;;;6.80;;
54555;SDS011;57291;37.520;15.106;2023-06-22T08:57:25;12.15;;;7.22;;
54555;SDS011;57291;37.520;15.106;2023-06-22T08:59:53;15.52;;;7.07;;
54555;SDS011;57291;37.520;15.106;2023-06-22T09:02:28;13.07;;;6.60;;
54555;SDS011;57291;37.520;15.106;2023-06-22T09:04:58;14.25;;;7.07;;
54555;SDS011;57291;37.520;15.106;2023-06-22T09:07:26;12.30;;;7.13;;
54555;SDS011;57291;37.520;15.106;2023-06-22T09:09:53;12.63;;;6.50;;
54555;SDS011;57291;37.520;15.106;2023-06-22T09:12:20;13.07;;;6.90;;
54555;SDS011;57291;37.520;15.106;2023-06-22T09:14:52;11.90;;;6.90;;
54555;SDS011;57291;37.520;15.106;2023-06-22T09:17:22;13.65;;;6.93;;
54555;SDS011;57291;37.520;15.106;2023-06-22T09:19:49;12.88;;;6.78;;
54555;SDS011;57291;37.520;15.106;2023-06-22T09:22:16;11.75;;;6.95;;
54555;SDS011;57291;37.520;15.106;2023-06-22T09:24:44;12.13;;;6.75;;
54555;SDS011;57291;37.520;15.106;2023-06-22T09:27:11;11.32;;;6.28;;
54555;SDS011;57291;37.520;15.106;2023-06-22T09:29:38;11.13;;;6.25;;
54555;SDS011;57291;37.520;15.106;2023-06-22T09:32:05;12.27;;;7.18;;
54555;SDS011;57291;37.520;15.106;2023-06-22T09:34:33;11.45;;;6.13;;
54555;SDS011;57291;37.520;15.106;2023-06-22T09:37:00;10.73;;;5.65;;
54555;SDS011;57291;37.520;15.106;2023-06-22T09:39:27;11.15;;;6.32;;
54555;SDS011;57291;37.520;15.106;2023-06-22T09:41:54;8.77;;;5.95;;
54555;SDS011;57291;37.520;15.106;2023-06-22T09:44:22;11.15;;;6.25;;
54555;SDS011;57291;37.520;15.106;2023-06-22T09:46:49;9.88;;;5.15;;
54555;SDS011;57291;37.520;15.106;2023-06-22T09:49:16;11.05;;;4.88;;
54555;SDS011;57291;37.520;15.106;2023-06-22T09:51:47;10.45;;;5.68;;
54555;SDS011;57291;37.520;15.106;2023-06-22T09:54:14;10.65;;;5.20;;
54555;SDS011;57291;37.520;15.106;2023-06-22T09:56:41;9.38;;;5.13;;
54555;SDS011;57291;37.520;15.106;2023-06-22T09:59:08;11.00;;;5.47;;
54555;SDS011;57291;37.520;15.106;2023-06-22T10:01:44;9.15;;;5.45;;
54555;SDS011;57291;37.520;15.106;2023-06-22T10:04:11;10.00;;;5.15;;
54555;SDS011;57291;37.520;15.106;2023-06-22T10:06:39;10.27;;;5.20;;
54555;SDS011;57291;37.520;15.106;2023-06-22T10:09:07;12.38;;;5.82;;
54555;SDS011;57291;37.520;15.106;2023-06-22T10:11:35;9.38;;;5.57;;
54555;SDS011;57291;37.520;15.106;2023-06-22T10:14:03;7.55;;;4.40;;
54555;SDS011;57291;37.520;15.106;2023-06-22T10:16:31;6.55;;;4.20;;
54555;SDS011;57291;37.520;15.106;2023-06-22T10:18:59;10.23;;;3.90;;
54555;SDS011;57291;37.520;15.106;2023-06-22T10:21:27;5.72;;;4.07;;
54555;SDS011;57291;37.520;15.106;2023-06-22T10:23:55;6.75;;;3.65;;
54555;SDS011;57291;37.520;15.106;2023-06-22T10:29:25;6.88;;;3.50;;
54555;SDS011;57291;37.520;15.106;2023-06-22T10:31:52;7.47;;;4.00;;
54555;SDS011;57291;37.520;15.106;2023-06-22T10:34:19;5.80;;;3.50;;
54555;SDS011;57291;37.520;15.106;2023-06-22T10:36:46;6.95;;;4.38;;
54555;SDS011;57291;37.520;15.106;2023-06-22T10:39:15;7.75;;;4.20;;
54555;SDS011;57291;37.520;15.106;2023-06-22T10:41:42;9.52;;;5.07;;
54555;SDS011;57291;37.520;15.106;2023-06-22T10:44:09;7.13;;;4.10;;
54555;SDS011;57291;37.520;15.106;2023-06-22T10:46:37;8.10;;;4.68;;
54555;SDS011;57291;37.520;15.106;2023-06-22T10:49:05;9.98;;;4.82;;
54555;SDS011;57291;37.520;15.106;2023-06-22T10:51:32;8.60;;;4.70;;
54555;SDS011;57291;37.520;15.106;2023-06-22T10:54:00;10.00;;;4.63;;
54555;SDS011;57291;37.520;15.106;2023-06-22T10:56:27;9.93;;;4.78;;
54555;SDS011;57291;37.520;15.106;2023-06-22T10:58:56;7.20;;;4.45;;
54555;SDS011;57291;37.520;15.106;2023-06-22T11:01:23;11.00;;;4.85;;
54555;SDS011;57291;37.520;15.106;2023-06-22T11:03:53;7.50;;;4.97;;
54555;SDS011;57291;37.520;15.106;2023-06-22T11:06:20;10.43;;;5.00;;
54555;SDS011;57291;37.520;15.106;2023-06-22T11:08:47;12.80;;;5.05;;
54555;SDS011;57291;37.520;15.106;2023-06-22T11:11:35;13.05;;;4.93;;
54555;SDS011;57291;37.520;15.106;2023-06-22T11:14:02;10.63;;;4.68;;
54555;SDS011;57291;37.520;15.106;2023-06-22T11:16:29;9.85;;;5.13;;
54555;SDS011;57291;37.520;15.106;2023-06-22T11:18:57;8.00;;;5.25;;
54555;SDS011;57291;37.520;15.106;2023-06-22T11:21:24;7.93;;;4.88;;
54555;SDS011;57291;37.520;15.106;2023-06-22T11:23:51;8.23;;;5.03;;
54555;SDS011;57291;37.520;15.106;2023-06-22T11:26:18;8.50;;;4.97;;
54555;SDS011;57291;37.520;15.106;2023-06-22T11:28:47;9.35;;;4.45;;
54555;SDS011;57291;37.520;15.106;2023-06-22T11:31:15;8.30;;;4.45;;
54555;SDS011;57291;37.520;15.106;2023-06-22T11:33:52;9.35;;;4.47;;
54555;SDS011;57291;37.520;15.106;2023-06-22T11:36:19;7.22;;;5.07;;
54555;SDS011;57291;37.520;15.106;2023-06-22T11:38:47;8.50;;;4.72;;
54555;SDS011;57291;37.520;15.106;2023-06-22T11:41:14;9.23;;;4.85;;
54555;SDS011;57291;37.520;15.106;2023-06-22T11:43:41;10.27;;;4.97;;
54555;SDS011;57291;37.520;15.106;2023-06-22T11:46:08;8.07;;;5.05;;
54555;SDS011;57291;37.520;15.106;2023-06-22T11:48:35;9.43;;;4.60;;
54555;SDS011;57291;37.520;15.106;2023-06-22T11:51:03;8.75;;;4.78;;
54555;SDS011;57291;37.520;15.106;2023-06-22T11:53:30;8.90;;;4.40;;
54555;SDS011;57291;37.520;15.106;2023-06-22T11:55:57;7.68;;;4.57;;
54555;SDS011;57291;37.520;15.106;2023-06-22T11:58:24;7.38;;;4.68;;
54555;SDS011;57291;37.520;15.106;2023-06-22T12:00:52;8.05;;;4.70;;
54555;SDS011;57291;37.520;15.106;2023-06-22T12:03:20;8.80;;;4.60;;
54555;SDS011;57291;37.520;15.106;2023-06-22T12:05:49;4.82;;;3.30;;
54555;SDS011;57291;37.520;15.106;2023-06-22T12:08:20;8.00;;;4.00;;
54555;SDS011;57291;37.520;15.106;2023-06-22T12:10:49;7.40;;;4.18;;
54555;SDS011;57291;37.520;15.106;2023-06-22T12:13:17;5.53;;;3.40;;
54555;SDS011;57291;37.520;15.106;2023-06-22T12:15:44;5.28;;;3.30;;
54555;SDS011;57291;37.520;15.106;2023-06-22T12:18:11;5.78;;;3.88;;
54555;SDS011;57291;37.520;15.106;2023-06-22T12:20:41;6.45;;;3.78;;
54555;SDS011;57291;37.520;15.106;2023-06-22T12:23:08;6.13;;;3.90;;
54555;SDS011;57291;37.520;15.106;2023-06-22T12:25:35;6.93;;;3.30;;
54555;SDS011;57291;37.520;15.106;2023-06-22T12:28:02;7.95;;;4.13;;
54555;SDS011;57291;37.520;15.106;2023-06-22T12:30:32;5.55;;;3.85;;
54555;SDS011;57291;37.520;15.106;2023-06-22T12:33:00;5.18;;;3.28;;
54555;SDS011;57291;37.520;15.106;2023-06-22T12:35:27;4.95;;;3.50;;
54555;SDS011;57291;37.520;15.106;2023-06-22T12:37:54;6.65;;;4.00;;
54555;SDS011;57291;37.520;15.106;2023-06-22T12:40:21;5.90;;;3.90;;
54555;SDS011;57291;37.520;15.106;2023-06-22T12:42:49;9.18;;;3.80;;
54555;SDS011;57291;37.520;15.106;2023-06-22T12:45:16;5.03;;;3.47;;
54555;SDS011;57291;37.520;15.106;2023-06-22T12:47:43;6.28;;;3.95;;
54555;SDS011;57291;37.520;15.106;2023-06-22T12:50:11;7.35;;;3.80;;
54555;SDS011;57291;37.520;15.106;2023-06-22T12:52:39;5.85;;;3.30;;
54555;SDS011;57291;37.520;15.106;2023-06-22T12:55:07;6.13;;;3.70;;
54555;SDS011;57291;37.520;15.106;2023-06-22T12:57:35;7.53;;;3.70;;
54555;SDS011;57291;37.520;15.106;2023-06-22T13:00:02;5.18;;;3.47;;
54555;SDS011;57291;37.520;15.106;2023-06-22T13:02:32;7.20;;;3.55;;
54555;SDS011;57291;37.520;15.106;2023-06-22T13:04:59;5.40;;;3.58;;
54555;SDS011;57291;37.520;15.106;2023-06-22T13:07:29;5.57;;;3.60;;
54555;SDS011;57291;37.520;15.106;2023-06-22T13:09:58;5.88;;;3.65;;
54555;SDS011;57291;37.520;15.106;2023-06-22T13:12:25;4.65;;;3.33;;
54555;SDS011;57291;37.520;15.106;2023-06-22T13:14:52;5.28;;;3.72;;
54555;SDS011;57291;37.520;15.106;2023-06-22T13:17:20;13.20;;;4.47;;
54555;SDS011;57291;37.520;15.106;2023-06-22T13:19:47;5.45;;;3.50;;
54555;SDS011;57291;37.520;15.106;2023-06-22T13:22:33;7.00;;;3.83;;
54555;SDS011;57291;37.520;15.106;2023-06-22T13:25:09;7.22;;;4.32;;
54555;SDS011;57291;37.520;15.106;2023-06-22T13:27:52;6.50;;;3.80;;
54555;SDS011;57291;37.520;15.106;2023-06-22T13:30:19;10.48;;;4.35;;
54555;SDS011;57291;37.520;15.106;2023-06-22T13:32:46;6.88;;;3.85;;
54555;SDS011;57291;37.520;15.106;2023-06-22T13:35:13;6.65;;;3.78;;
54555;SDS011;57291;37.520;15.106;2023-06-22T13:37:40;6.43;;;4.10;;
54555;SDS011;57291;37.520;15.106;2023-06-22T13:40:08;6.07;;;4.13;;
54555;SDS011;57291;37.520;15.106;2023-06-22T13:42:35;7.22;;;3.85;;
54555;SDS011;57291;37.520;15.106;2023-06-22T13:45:03;8.75;;;3.65;;
54555;SDS011;57291;37.520;15.106;2023-06-22T13:47:31;6.97;;;3.80;;
54555;SDS011;57291;37.520;15.106;2023-06-22T13:49:58;8.52;;;3.97;;
54555;SDS011;57291;37.520;15.106;2023-06-22T13:52:26;6.72;;;3.55;;
54555;SDS011;57291;37.520;15.106;2023-06-22T13:54:53;4.88;;;3.63;;
54555;SDS011;57291;37.520;15.106;2023-06-22T13:57:20;4.60;;;3.22;;
54555;SDS011;57291;37.520;15.106;2023-06-22T13:59:47;6.85;;;3.72;;
54555;SDS011;57291;37.520;15.106;2023-06-22T14:02:15;7.35;;;3.80;;
54555;SDS011;57291;37.520;15.106;2023-06-22T14:04:42;5.47;;;3.90;;
54555;SDS011;57291;37.520;15.106;2023-06-22T14:07:10;6.00;;;3.47;;
54555;SDS011;57291;37.520;15.106;2023-06-22T14:09:38;4.68;;;3.40;;
54555;SDS011;57291;37.520;15.106;2023-06-22T14:12:06;5.90;;;3.80;;
54555;SDS011;57291;37.520;15.106;2023-06-22T14:14:33;6.28;;;3.90;;
54555;SDS011;57291;37.520;15.106;2023-06-22T14:17:01;6.63;;;4.13;;
54555;SDS011;57291;37.520;15.106;2023-06-22T14:19:28;6.22;;;4.30;;
54555;SDS011;57291;37.520;15.106;2023-06-22T14:21:55;5.72;;;3.83;;
54555;SDS011;57291;37.520;15.106;2023-06-22T14:24:23;6.65;;;4.13;;
54555;SDS011;57291;37.520;15.106;2023-06-22T14:26:54;7.07;;;3.70;;
54555;SDS011;57291;37.520;15.106;2023-06-22T14:29:22;5.93;;;3.72;;
54555;SDS011;57291;37.520;15.106;2023-06-22T14:31:49;6.43;;;4.25;;
54555;SDS011;57291;37.520;15.106;2023-06-22T14:34:17;7.80;;;4.10;;
54555;SDS011;57291;37.520;15.106;2023-06-22T14:36:44;5.82;;;3.80;;
54555;SDS011;57291;37.520;15.106;2023-06-22T14:39:11;5.93;;;3.97;;
54555;SDS011;57291;37.520;15.106;2023-06-22T14:41:38;6.40;;;3.65;;
54555;SDS011;57291;37.520;15.106;2023-06-22T14:44:05;6.72;;;3.88;;
54555;SDS011;57291;37.520;15.106;2023-06-22T14:46:32;7.10;;;4.22;;
54555;SDS011;57291;37.520;15.106;2023-06-22T14:49:00;7.53;;;3.90;;
54555;SDS011;57291;37.520;15.106;2023-06-22T14:51:27;8.23;;;4.47;;
54555;SDS011;57291;37.520;15.106;2023-06-22T14:53:54;7.78;;;4.00;;